sensor_id;sensor_type;location;lat;lon;timestamp;P1;durP1;ratioP1;P2;durP2;ratioP2
75504;SDS011;64085;54.974;73.410;2023-04-06T00:02:36;4.60;;;2.25;;
75504;SDS011;64085;54.974;73.410;2023-04-06T00:05:02;3.90;;;2.15;;
75504;SDS011;64085;54.974;73.410;2023-04-06T00:07:28;4.57;;;2.10;;
75504;SDS011;64085;54.974;73.410;2023-04-06T00:09:54;6.97;;;2.17;;
75504;SDS011;64085;54.974;73.410;2023-04-06T00:12:20;9.00;;;2.83;;
75504;SDS011;64085;54.974;73.410;2023-04-06T00:15:04;5.25;;;2.53;;
75504;SDS011;64085;54.974;73.410;2023-04-06T00:17:31;7.80;;;3.13;;
75504;SDS011;64085;54.974;73.410;2023-04-06T00:19:56;5.60;;;2.72;;
75504;SDS011;64085;54.974;73.410;2023-04-06T00:22:40;5.05;;;2.63;;
75504;SDS011;64085;54.974;73.410;2023-04-06T00:25:25;8.00;;;2.65;;
75504;SDS011;64085;54.974;73.410;2023-04-06T00:30:54;4.95;;;2.35;;
75504;SDS011;64085;54.974;73.410;2023-04-06T00:33:37;5.85;;;2.10;;
75504;SDS011;64085;54.974;73.410;2023-04-06T00:42:46;5.03;;;1.98;;
75504;SDS011;64085;54.974;73.410;2023-04-06T00:45:31;11.65;;;3.42;;
75504;SDS011;64085;54.974;73.410;2023-04-06T00:51:00;9.18;;;2.10;;
75504;SDS011;64085;54.974;73.410;2023-04-06T01:02:17;12.60;;;4.28;;
75504;SDS011;64085;54.974;73.410;2023-04-06T01:05:13;10.40;;;4.80;;
75504;SDS011;64085;54.974;73.410;2023-04-06T01:08:16;6.90;;;4.30;;
75504;SDS011;64085;54.974;73.410;2023-04-06T01:10:41;10.77;;;4.35;;
75504;SDS011;64085;54.974;73.410;2023-04-06T01:13:07;7.88;;;3.53;;
75504;SDS011;64085;54.974;73.410;2023-04-06T01:15:52;8.25;;;3.53;;
75504;SDS011;64085;54.974;73.410;2023-04-06T01:18:18;8.10;;;3.47;;
75504;SDS011;64085;54.974;73.410;2023-04-06T01:20:43;6.82;;;3.47;;
75504;SDS011;64085;54.974;73.410;2023-04-06T01:23:09;9.55;;;3.45;;
75504;SDS011;64085;54.974;73.410;2023-04-06T01:25:53;10.23;;;3.60;;
75504;SDS011;64085;54.974;73.410;2023-04-06T01:31:23;9.48;;;4.90;;
75504;SDS011;64085;54.974;73.410;2023-04-06T01:33:49;8.60;;;3.72;;
75504;SDS011;64085;54.974;73.410;2023-04-06T01:38:58;12.10;;;4.50;;
75504;SDS011;64085;54.974;73.410;2023-04-06T01:44:27;12.50;;;4.13;;
75504;SDS011;64085;54.974;73.410;2023-04-06T01:46:55;7.35;;;3.63;;
75504;SDS011;64085;54.974;73.410;2023-04-06T01:49:39;10.32;;;4.03;;
75504;SDS011;64085;54.974;73.410;2023-04-06T01:52:05;9.23;;;4.28;;
75504;SDS011;64085;54.974;73.410;2023-04-06T01:54:31;10.70;;;5.55;;
75504;SDS011;64085;54.974;73.410;2023-04-06T02:02:25;11.23;;;5.18;;
75504;SDS011;64085;54.974;73.410;2023-04-06T02:04:51;10.48;;;4.53;;
75504;SDS011;64085;54.974;73.410;2023-04-06T02:07:35;11.10;;;5.55;;
75504;SDS011;64085;54.974;73.410;2023-04-06T02:10:19;14.05;;;5.10;;
75504;SDS011;64085;54.974;73.410;2023-04-06T02:12:45;12.02;;;4.57;;
75504;SDS011;64085;54.974;73.410;2023-04-06T02:15:11;8.52;;;4.90;;
75504;SDS011;64085;54.974;73.410;2023-04-06T02:17:55;9.10;;;3.85;;
75504;SDS011;64085;54.974;73.410;2023-04-06T02:26:29;9.50;;;4.47;;
75504;SDS011;64085;54.974;73.410;2023-04-06T02:28:55;8.77;;;4.15;;
75504;SDS011;64085;54.974;73.410;2023-04-06T02:31:21;14.50;;;4.55;;
75504;SDS011;64085;54.974;73.410;2023-04-06T02:34:05;9.90;;;5.00;;
75504;SDS011;64085;54.974;73.410;2023-04-06T02:36:32;10.50;;;5.43;;
75504;SDS011;64085;54.974;73.410;2023-04-06T02:42:00;14.80;;;6.65;;
75504;SDS011;64085;54.974;73.410;2023-04-06T02:44:26;12.55;;;6.45;;
75504;SDS011;64085;54.974;73.410;2023-04-06T02:47:10;17.45;;;6.97;;
75504;SDS011;64085;54.974;73.410;2023-04-06T02:49:35;19.10;;;8.50;;
75504;SDS011;64085;54.974;73.410;2023-04-06T02:52:20;20.27;;;8.45;;
75504;SDS011;64085;54.974;73.410;2023-04-06T02:54:45;25.52;;;10.23;;
75504;SDS011;64085;54.974;73.410;2023-04-06T02:57:48;21.10;;;9.93;;
75504;SDS011;64085;54.974;73.410;2023-04-06T03:00:14;18.70;;;9.73;;
75504;SDS011;64085;54.974;73.410;2023-04-06T03:02:40;20.20;;;10.15;;
75504;SDS011;64085;54.974;73.410;2023-04-06T03:05:06;17.40;;;10.32;;
75504;SDS011;64085;54.974;73.410;2023-04-06T03:07:32;24.23;;;11.98;;
75504;SDS011;64085;54.974;73.410;2023-04-06T03:10:16;18.02;;;9.80;;
75504;SDS011;64085;54.974;73.410;2023-04-06T03:13:00;21.65;;;10.02;;
75504;SDS011;64085;54.974;73.410;2023-04-06T03:15:44;20.10;;;9.65;;
75504;SDS011;64085;54.974;73.410;2023-04-06T03:18:28;24.23;;;10.55;;
75504;SDS011;64085;54.974;73.410;2023-04-06T03:20:54;31.15;;;12.75;;
75504;SDS011;64085;54.974;73.410;2023-04-06T03:23:20;25.75;;;10.93;;
75504;SDS011;64085;54.974;73.410;2023-04-06T03:25:46;30.52;;;13.35;;
75504;SDS011;64085;54.974;73.410;2023-04-06T03:31:15;26.23;;;11.27;;
75504;SDS011;64085;54.974;73.410;2023-04-06T03:33:41;24.83;;;11.57;;
75504;SDS011;64085;54.974;73.410;2023-04-06T03:36:25;21.63;;;11.18;;
75504;SDS011;64085;54.974;73.410;2023-04-06T03:38:51;26.25;;;11.02;;
75504;SDS011;64085;54.974;73.410;2023-04-06T03:41:18;23.15;;;9.60;;
75504;SDS011;64085;54.974;73.410;2023-04-06T03:43:44;18.35;;;8.27;;
75504;SDS011;64085;54.974;73.410;2023-04-06T03:46:29;16.17;;;8.32;;
75504;SDS011;64085;54.974;73.410;2023-04-06T03:49:13;14.38;;;7.30;;
75504;SDS011;64085;54.974;73.410;2023-04-06T03:55:18;19.48;;;8.75;;
75504;SDS011;64085;54.974;73.410;2023-04-06T04:00:28;25.30;;;8.25;;
75504;SDS011;64085;54.974;73.410;2023-04-06T04:02:54;21.17;;;8.05;;
75504;SDS011;64085;54.974;73.410;2023-04-06T04:05:38;13.20;;;5.53;;
75504;SDS011;64085;54.974;73.410;2023-04-06T04:08:04;15.40;;;7.40;;
75504;SDS011;64085;54.974;73.410;2023-04-06T04:10:30;13.50;;;6.22;;
75504;SDS011;64085;54.974;73.410;2023-04-06T04:12:56;12.43;;;5.80;;
75504;SDS011;64085;54.974;73.410;2023-04-06T04:15:40;10.70;;;4.75;;
75504;SDS011;64085;54.974;73.410;2023-04-06T04:18:23;15.63;;;5.53;;
75504;SDS011;64085;54.974;73.410;2023-04-06T04:20:51;12.02;;;5.80;;
75504;SDS011;64085;54.974;73.410;2023-04-06T04:23:17;15.82;;;5.15;;
75504;SDS011;64085;54.974;73.410;2023-04-06T04:25:43;14.38;;;5.15;;
75504;SDS011;64085;54.974;73.410;2023-04-06T04:28:46;12.23;;;4.70;;
75504;SDS011;64085;54.974;73.410;2023-04-06T04:31:12;18.35;;;5.10;;
75504;SDS011;64085;54.974;73.410;2023-04-06T04:33:37;18.38;;;4.88;;
75504;SDS011;64085;54.974;73.410;2023-04-06T04:39:07;16.58;;;4.90;;
75504;SDS011;64085;54.974;73.410;2023-04-06T04:41:51;16.48;;;5.57;;
75504;SDS011;64085;54.974;73.410;2023-04-06T04:44:18;13.85;;;5.90;;
75504;SDS011;64085;54.974;73.410;2023-04-06T04:46:44;13.63;;;5.57;;
75504;SDS011;64085;54.974;73.410;2023-04-06T04:49:10;11.52;;;6.05;;
75504;SDS011;64085;54.974;73.410;2023-04-06T04:51:54;11.73;;;4.45;;
75504;SDS011;64085;54.974;73.410;2023-04-06T04:54:20;12.45;;;4.97;;
75504;SDS011;64085;54.974;73.410;2023-04-06T05:00:09;9.10;;;4.47;;
75504;SDS011;64085;54.974;73.410;2023-04-06T05:03:23;8.65;;;4.63;;
75504;SDS011;64085;54.974;73.410;2023-04-06T05:06:08;10.95;;;3.92;;
75504;SDS011;64085;54.974;73.410;2023-04-06T05:08:34;8.93;;;3.83;;
75504;SDS011;64085;54.974;73.410;2023-04-06T05:14:02;9.25;;;4.43;;
75504;SDS011;64085;54.974;73.410;2023-04-06T05:16:46;7.63;;;4.18;;
75504;SDS011;64085;54.974;73.410;2023-04-06T05:19:30;9.15;;;4.28;;
75504;SDS011;64085;54.974;73.410;2023-04-06T05:24:42;13.05;;;5.25;;
75504;SDS011;64085;54.974;73.410;2023-04-06T05:27:08;11.65;;;4.90;;
75504;SDS011;64085;54.974;73.410;2023-04-06T05:29:34;13.80;;;4.15;;
75504;SDS011;64085;54.974;73.410;2023-04-06T05:34:47;7.97;;;4.07;;
75504;SDS011;64085;54.974;73.410;2023-04-06T05:37:32;10.75;;;3.95;;
75504;SDS011;64085;54.974;73.410;2023-04-06T05:39:58;9.27;;;4.07;;
75504;SDS011;64085;54.974;73.410;2023-04-06T05:42:57;12.40;;;4.90;;
75504;SDS011;64085;54.974;73.410;2023-04-06T05:48:09;9.43;;;3.58;;
75504;SDS011;64085;54.974;73.410;2023-04-06T05:50:35;14.25;;;4.22;;
75504;SDS011;64085;54.974;73.410;2023-04-06T05:53:00;7.30;;;4.07;;
75504;SDS011;64085;54.974;73.410;2023-04-06T05:55:46;8.63;;;3.50;;
75504;SDS011;64085;54.974;73.410;2023-04-06T05:58:12;9.20;;;3.88;;
75504;SDS011;64085;54.974;73.410;2023-04-06T06:01:00;9.52;;;4.00;;
75504;SDS011;64085;54.974;73.410;2023-04-06T06:04:03;9.20;;;4.53;;
75504;SDS011;64085;54.974;73.410;2023-04-06T06:06:28;8.30;;;3.50;;
75504;SDS011;64085;54.974;73.410;2023-04-06T06:08:57;9.60;;;4.80;;
75504;SDS011;64085;54.974;73.410;2023-04-06T06:11:42;12.93;;;5.10;;
75504;SDS011;64085;54.974;73.410;2023-04-06T06:14:44;11.23;;;4.82;;
75504;SDS011;64085;54.974;73.410;2023-04-06T06:17:10;7.93;;;4.10;;
75504;SDS011;64085;54.974;73.410;2023-04-06T06:19:36;7.32;;;3.40;;
75504;SDS011;64085;54.974;73.410;2023-04-06T06:22:01;11.00;;;3.35;;
75504;SDS011;64085;54.974;73.410;2023-04-06T06:24:46;8.55;;;3.83;;
75504;SDS011;64085;54.974;73.410;2023-04-06T06:33:17;6.50;;;2.72;;
75504;SDS011;64085;54.974;73.410;2023-04-06T06:41:30;7.28;;;3.83;;
75504;SDS011;64085;54.974;73.410;2023-04-06T06:47:18;8.18;;;3.25;;
75504;SDS011;64085;54.974;73.410;2023-04-06T06:49:43;5.07;;;2.38;;
75504;SDS011;64085;54.974;73.410;2023-04-06T06:52:09;5.80;;;3.13;;
75504;SDS011;64085;54.974;73.410;2023-04-06T06:54:53;11.32;;;5.20;;
75504;SDS011;64085;54.974;73.410;2023-04-06T06:57:37;5.95;;;3.63;;
75504;SDS011;64085;54.974;73.410;2023-04-06T07:03:25;8.02;;;2.42;;
75504;SDS011;64085;54.974;73.410;2023-04-06T07:09:12;8.18;;;2.70;;
75504;SDS011;64085;54.974;73.410;2023-04-06T07:11:37;6.13;;;3.10;;
75504;SDS011;64085;54.974;73.410;2023-04-06T07:14:40;6.18;;;3.28;;
75504;SDS011;64085;54.974;73.410;2023-04-06T07:17:06;15.77;;;3.40;;
75504;SDS011;64085;54.974;73.410;2023-04-06T07:23:11;8.55;;;2.38;;
75504;SDS011;64085;54.974;73.410;2023-04-06T07:25:37;6.78;;;1.88;;
75504;SDS011;64085;54.974;73.410;2023-04-06T07:28:21;11.32;;;3.20;;
75504;SDS011;64085;54.974;73.410;2023-04-06T07:30:47;11.40;;;3.22;;
75504;SDS011;64085;54.974;73.410;2023-04-06T07:33:50;7.97;;;2.55;;
75504;SDS011;64085;54.974;73.410;2023-04-06T07:36:53;9.85;;;2.22;;
75504;SDS011;64085;54.974;73.410;2023-04-06T07:39:37;4.40;;;2.03;;
75504;SDS011;64085;54.974;73.410;2023-04-06T07:42:02;5.78;;;2.33;;
75504;SDS011;64085;54.974;73.410;2023-04-06T07:44:28;9.98;;;2.92;;
75504;SDS011;64085;54.974;73.410;2023-04-06T07:47:12;8.77;;;2.53;;
75504;SDS011;64085;54.974;73.410;2023-04-06T07:49:38;5.53;;;1.98;;
75504;SDS011;64085;54.974;73.410;2023-04-06T07:52:21;6.20;;;2.38;;
75504;SDS011;64085;54.974;73.410;2023-04-06T07:57:50;5.57;;;2.50;;
75504;SDS011;64085;54.974;73.410;2023-04-06T08:00:16;7.63;;;2.13;;
75504;SDS011;64085;54.974;73.410;2023-04-06T08:03:00;4.28;;;2.00;;
75504;SDS011;64085;54.974;73.410;2023-04-06T08:05:26;6.35;;;2.10;;
75504;SDS011;64085;54.974;73.410;2023-04-06T08:07:51;6.82;;;2.30;;
75504;SDS011;64085;54.974;73.410;2023-04-06T08:10:17;5.85;;;2.03;;
75504;SDS011;64085;54.974;73.410;2023-04-06T08:15:46;7.32;;;2.88;;
75504;SDS011;64085;54.974;73.410;2023-04-06T08:21:15;4.18;;;2.08;;
75504;SDS011;64085;54.974;73.410;2023-04-06T08:23:41;5.40;;;2.17;;
75504;SDS011;64085;54.974;73.410;2023-04-06T08:29:09;7.07;;;2.30;;
75504;SDS011;64085;54.974;73.410;2023-04-06T08:31:53;10.52;;;2.80;;
75504;SDS011;64085;54.974;73.410;2023-04-06T08:34:37;5.22;;;3.53;;
75504;SDS011;64085;54.974;73.410;2023-04-06T08:40:06;11.15;;;2.60;;
75504;SDS011;64085;54.974;73.410;2023-04-06T08:45:20;5.55;;;2.30;;
75504;SDS011;64085;54.974;73.410;2023-04-06T08:47:49;6.25;;;2.00;;
75504;SDS011;64085;54.974;73.410;2023-04-06T08:50:35;8.55;;;3.25;;
75504;SDS011;64085;54.974;73.410;2023-04-06T08:53:19;7.82;;;2.25;;
75504;SDS011;64085;54.974;73.410;2023-04-06T08:56:04;5.35;;;2.50;;
75504;SDS011;64085;54.974;73.410;2023-04-06T09:04:35;6.77;;;2.57;;
75504;SDS011;64085;54.974;73.410;2023-04-06T09:10:05;6.28;;;2.97;;
75504;SDS011;64085;54.974;73.410;2023-04-06T09:12:31;7.45;;;2.85;;
75504;SDS011;64085;54.974;73.410;2023-04-06T09:14:57;7.65;;;2.80;;
75504;SDS011;64085;54.974;73.410;2023-04-06T09:17:28;5.63;;;2.08;;
75504;SDS011;64085;54.974;73.410;2023-04-06T09:25:50;7.78;;;2.75;;
75504;SDS011;64085;54.974;73.410;2023-04-06T09:28:15;4.63;;;1.92;;
75504;SDS011;64085;54.974;73.410;2023-04-06T09:33:44;2.55;;;1.65;;
75504;SDS011;64085;54.974;73.410;2023-04-06T09:36:11;4.47;;;2.17;;
75504;SDS011;64085;54.974;73.410;2023-04-06T09:38:39;3.85;;;1.67;;
75504;SDS011;64085;54.974;73.410;2023-04-06T09:46:49;4.60;;;2.00;;
75504;SDS011;64085;54.974;73.410;2023-04-06T09:49:16;8.68;;;2.63;;
75504;SDS011;64085;54.974;73.410;2023-04-06T09:52:19;5.88;;;1.88;;
75504;SDS011;64085;54.974;73.410;2023-04-06T09:55:08;6.95;;;1.35;;
75504;SDS011;64085;54.974;73.410;2023-04-06T09:57:42;1.83;;;0.82;;
75504;SDS011;64085;54.974;73.410;2023-04-06T10:00:43;4.30;;;2.05;;
75504;SDS011;64085;54.974;73.410;2023-04-06T10:09:02;5.63;;;2.03;;
75504;SDS011;64085;54.974;73.410;2023-04-06T10:11:48;4.20;;;1.50;;
75504;SDS011;64085;54.974;73.410;2023-04-06T10:14:15;9.60;;;1.77;;
75504;SDS011;64085;54.974;73.410;2023-04-06T10:28:06;6.85;;;1.67;;
75504;SDS011;64085;54.974;73.410;2023-04-06T10:31:00;3.30;;;1.55;;
75504;SDS011;64085;54.974;73.410;2023-04-06T10:36:24;6.60;;;2.85;;
75504;SDS011;64085;54.974;73.410;2023-04-06T10:38:58;9.93;;;3.17;;
75504;SDS011;64085;54.974;73.410;2023-04-06T10:41:34;6.55;;;2.42;;
75504;SDS011;64085;54.974;73.410;2023-04-06T10:44:17;7.13;;;3.13;;
75504;SDS011;64085;54.974;73.410;2023-04-06T10:46:56;10.27;;;2.88;;
75504;SDS011;64085;54.974;73.410;2023-04-06T10:49:26;6.28;;;2.50;;
75504;SDS011;64085;54.974;73.410;2023-04-06T10:51:55;5.60;;;2.72;;
75504;SDS011;64085;54.974;73.410;2023-04-06T10:54:22;8.15;;;2.45;;
75504;SDS011;64085;54.974;73.410;2023-04-06T10:56:49;4.95;;;2.00;;
75504;SDS011;64085;54.974;73.410;2023-04-06T10:59:19;8.27;;;2.50;;
75504;SDS011;64085;54.974;73.410;2023-04-06T11:01:46;5.43;;;2.00;;
75504;SDS011;64085;54.974;73.410;2023-04-06T11:04:15;6.53;;;1.80;;
75504;SDS011;64085;54.974;73.410;2023-04-06T11:06:59;5.13;;;2.03;;
75504;SDS011;64085;54.974;73.410;2023-04-06T11:09:49;6.07;;;1.83;;
75504;SDS011;64085;54.974;73.410;2023-04-06T11:12:33;9.95;;;2.53;;
75504;SDS011;64085;54.974;73.410;2023-04-06T11:15:17;10.95;;;2.47;;
75504;SDS011;64085;54.974;73.410;2023-04-06T11:20:47;5.82;;;2.00;;
75504;SDS011;64085;54.974;73.410;2023-04-06T11:23:21;6.95;;;2.38;;
75504;SDS011;64085;54.974;73.410;2023-04-06T11:25:51;9.57;;;2.25;;
75504;SDS011;64085;54.974;73.410;2023-04-06T11:28:19;9.73;;;2.45;;
75504;SDS011;64085;54.974;73.410;2023-04-06T11:30:45;12.38;;;2.40;;
75504;SDS011;64085;54.974;73.410;2023-04-06T11:33:19;9.18;;;2.60;;
75504;SDS011;64085;54.974;73.410;2023-04-06T11:36:04;10.57;;;2.75;;
75504;SDS011;64085;54.974;73.410;2023-04-06T11:41:34;8.73;;;2.75;;
75504;SDS011;64085;54.974;73.410;2023-04-06T11:44:34;7.97;;;1.88;;
75504;SDS011;64085;54.974;73.410;2023-04-06T11:47:19;12.63;;;3.70;;
75504;SDS011;64085;54.974;73.410;2023-04-06T11:52:59;11.00;;;3.35;;
75504;SDS011;64085;54.974;73.410;2023-04-06T11:55:43;9.85;;;3.38;;
75504;SDS011;64085;54.974;73.410;2023-04-06T11:58:11;5.72;;;2.85;;
75504;SDS011;64085;54.974;73.410;2023-04-06T12:03:48;13.23;;;2.95;;
75504;SDS011;64085;54.974;73.410;2023-04-06T12:06:17;10.85;;;3.08;;
75504;SDS011;64085;54.974;73.410;2023-04-06T12:08:43;13.75;;;2.90;;
75504;SDS011;64085;54.974;73.410;2023-04-06T12:11:10;12.18;;;2.55;;
75504;SDS011;64085;54.974;73.410;2023-04-06T12:13:56;10.65;;;3.58;;
75504;SDS011;64085;54.974;73.410;2023-04-06T12:16:41;7.43;;;3.30;;
75504;SDS011;64085;54.974;73.410;2023-04-06T12:19:06;12.30;;;3.13;;
75504;SDS011;64085;54.974;73.410;2023-04-06T12:21:34;8.85;;;3.35;;
75504;SDS011;64085;54.974;73.410;2023-04-06T12:35:02;6.15;;;2.67;;
75504;SDS011;64085;54.974;73.410;2023-04-06T12:40:36;14.98;;;3.60;;
75504;SDS011;64085;54.974;73.410;2023-04-06T12:43:03;11.25;;;2.92;;
75504;SDS011;64085;54.974;73.410;2023-04-06T12:45:48;12.00;;;3.55;;
75504;SDS011;64085;54.974;73.410;2023-04-06T12:48:14;18.23;;;4.60;;
75504;SDS011;64085;54.974;73.410;2023-04-06T12:50:59;11.52;;;4.43;;
75504;SDS011;64085;54.974;73.410;2023-04-06T12:53:26;22.20;;;4.82;;
75504;SDS011;64085;54.974;73.410;2023-04-06T12:56:14;21.23;;;5.50;;
75504;SDS011;64085;54.974;73.410;2023-04-06T12:58:42;15.23;;;5.55;;
75504;SDS011;64085;54.974;73.410;2023-04-06T13:01:09;11.95;;;4.20;;
75504;SDS011;64085;54.974;73.410;2023-04-06T13:03:53;11.75;;;5.00;;
75504;SDS011;64085;54.974;73.410;2023-04-06T13:09:42;21.92;;;5.30;;
75504;SDS011;64085;54.974;73.410;2023-04-06T13:14:52;18.15;;;6.35;;
75504;SDS011;64085;54.974;73.410;2023-04-06T13:17:17;28.33;;;6.88;;
75504;SDS011;64085;54.974;73.410;2023-04-06T13:19:43;23.08;;;6.28;;
75504;SDS011;64085;54.974;73.410;2023-04-06T13:22:27;24.35;;;7.25;;
75504;SDS011;64085;54.974;73.410;2023-04-06T13:25:12;24.60;;;8.00;;
75504;SDS011;64085;54.974;73.410;2023-04-06T13:33:06;21.67;;;8.63;;
75504;SDS011;64085;54.974;73.410;2023-04-06T13:35:32;27.50;;;9.65;;
75504;SDS011;64085;54.974;73.410;2023-04-06T13:41:19;33.97;;;12.18;;
75504;SDS011;64085;54.974;73.410;2023-04-06T13:43:46;29.20;;;12.55;;
75504;SDS011;64085;54.974;73.410;2023-04-06T13:46:12;30.23;;;12.07;;
75504;SDS011;64085;54.974;73.410;2023-04-06T13:48:38;55.10;;;15.27;;
75504;SDS011;64085;54.974;73.410;2023-04-06T13:51:13;32.38;;;11.75;;
75504;SDS011;64085;54.974;73.410;2023-04-06T13:56:41;32.72;;;14.57;;
75504;SDS011;64085;54.974;73.410;2023-04-06T13:59:07;36.85;;;15.48;;
75504;SDS011;64085;54.974;73.410;2023-04-06T14:04:17;38.03;;;16.15;;
75504;SDS011;64085;54.974;73.410;2023-04-06T14:07:01;44.92;;;15.15;;
75504;SDS011;64085;54.974;73.410;2023-04-06T14:09:28;48.30;;;17.20;;
75504;SDS011;64085;54.974;73.410;2023-04-06T14:11:55;74.55;;;22.50;;
75504;SDS011;64085;54.974;73.410;2023-04-06T14:14:39;67.10;;;19.80;;
75504;SDS011;64085;54.974;73.410;2023-04-06T14:17:05;57.97;;;19.02;;
75504;SDS011;64085;54.974;73.410;2023-04-06T14:19:30;59.22;;;20.88;;
75504;SDS011;64085;54.974;73.410;2023-04-06T14:21:57;92.45;;;26.83;;
75504;SDS011;64085;54.974;73.410;2023-04-06T14:24:22;115.28;;;31.33;;
75504;SDS011;64085;54.974;73.410;2023-04-06T14:26:48;66.78;;;25.30;;
75504;SDS011;64085;54.974;73.410;2023-04-06T14:29:14;73.20;;;24.13;;
75504;SDS011;64085;54.974;73.410;2023-04-06T14:31:40;63.78;;;24.00;;
75504;SDS011;64085;54.974;73.410;2023-04-06T14:40:11;62.97;;;19.73;;
75504;SDS011;64085;54.974;73.410;2023-04-06T14:42:37;76.22;;;25.02;;
75504;SDS011;64085;54.974;73.410;2023-04-06T14:45:03;94.85;;;23.60;;
75504;SDS011;64085;54.974;73.410;2023-04-06T14:50:33;51.97;;;17.60;;
75504;SDS011;64085;54.974;73.410;2023-04-06T14:52:59;94.00;;;24.88;;
75504;SDS011;64085;54.974;73.410;2023-04-06T14:55:26;104.22;;;24.77;;
75504;SDS011;64085;54.974;73.410;2023-04-06T14:58:10;63.33;;;21.33;;
75504;SDS011;64085;54.974;73.410;2023-04-06T15:00:38;64.95;;;20.73;;
75504;SDS011;64085;54.974;73.410;2023-04-06T15:03:04;60.17;;;18.98;;
75504;SDS011;64085;54.974;73.410;2023-04-06T15:08:14;76.13;;;22.20;;
75504;SDS011;64085;54.974;73.410;2023-04-06T15:10:40;103.57;;;25.90;;
75504;SDS011;64085;54.974;73.410;2023-04-06T15:13:24;112.65;;;27.15;;
75504;SDS011;64085;54.974;73.410;2023-04-06T15:15:50;92.18;;;27.17;;
75504;SDS011;64085;54.974;73.410;2023-04-06T15:18:16;121.85;;;35.95;;
75504;SDS011;64085;54.974;73.410;2023-04-06T15:20:43;89.22;;;25.40;;
75504;SDS011;64085;54.974;73.410;2023-04-06T15:23:09;107.65;;;27.23;;
75504;SDS011;64085;54.974;73.410;2023-04-06T15:25:34;91.38;;;25.90;;
75504;SDS011;64085;54.974;73.410;2023-04-06T15:28:37;89.13;;;26.25;;
75504;SDS011;64085;54.974;73.410;2023-04-06T15:31:03;65.65;;;22.88;;
75504;SDS011;64085;54.974;73.410;2023-04-06T15:33:37;60.97;;;19.38;;
75504;SDS011;64085;54.974;73.410;2023-04-06T15:36:06;57.38;;;18.67;;
75504;SDS011;64085;54.974;73.410;2023-04-06T15:38:33;67.95;;;18.77;;
75504;SDS011;64085;54.974;73.410;2023-04-06T15:44:01;53.22;;;16.70;;
75504;SDS011;64085;54.974;73.410;2023-04-06T15:46:27;47.67;;;16.67;;
75504;SDS011;64085;54.974;73.410;2023-04-06T15:48:53;51.15;;;15.05;;
75504;SDS011;64085;54.974;73.410;2023-04-06T15:51:37;62.15;;;15.63;;
75504;SDS011;64085;54.974;73.410;2023-04-06T15:54:03;58.45;;;16.98;;
75504;SDS011;64085;54.974;73.410;2023-04-06T15:56:48;77.22;;;20.33;;
75504;SDS011;64085;54.974;73.410;2023-04-06T15:59:14;67.47;;;19.33;;
75504;SDS011;64085;54.974;73.410;2023-04-06T16:01:40;54.65;;;16.73;;
75504;SDS011;64085;54.974;73.410;2023-04-06T16:04:06;57.20;;;16.20;;
75504;SDS011;64085;54.974;73.410;2023-04-06T16:06:33;71.45;;;21.08;;
75504;SDS011;64085;54.974;73.410;2023-04-06T16:08:59;76.47;;;20.45;;
75504;SDS011;64085;54.974;73.410;2023-04-06T16:11:43;73.60;;;20.50;;
75504;SDS011;64085;54.974;73.410;2023-04-06T16:14:27;91.95;;;23.10;;
75504;SDS011;64085;54.974;73.410;2023-04-06T16:16:53;64.43;;;19.48;;
75504;SDS011;64085;54.974;73.410;2023-04-06T16:19:19;79.28;;;22.50;;
75504;SDS011;64085;54.974;73.410;2023-04-06T16:21:44;64.32;;;21.30;;
75504;SDS011;64085;54.974;73.410;2023-04-06T16:24:11;61.88;;;25.67;;
75504;SDS011;64085;54.974;73.410;2023-04-06T16:26:37;62.20;;;19.63;;
75504;SDS011;64085;54.974;73.410;2023-04-06T16:29:04;76.05;;;26.75;;
75504;SDS011;64085;54.974;73.410;2023-04-06T16:31:30;84.00;;;25.05;;
75504;SDS011;64085;54.974;73.410;2023-04-06T16:34:14;77.35;;;25.67;;
75504;SDS011;64085;54.974;73.410;2023-04-06T16:36:39;85.75;;;27.65;;
75504;SDS011;64085;54.974;73.410;2023-04-06T16:39:24;105.32;;;32.97;;
75504;SDS011;64085;54.974;73.410;2023-04-06T16:44:34;101.80;;;34.00;;
75504;SDS011;64085;54.974;73.410;2023-04-06T16:47:00;113.90;;;38.22;;
75504;SDS011;64085;54.974;73.410;2023-04-06T16:49:26;121.57;;;40.97;;
75504;SDS011;64085;54.974;73.410;2023-04-06T16:51:51;150.73;;;49.05;;
75504;SDS011;64085;54.974;73.410;2023-04-06T16:57:20;77.82;;;27.15;;
75504;SDS011;64085;54.974;73.410;2023-04-06T17:00:05;43.05;;;20.25;;
75504;SDS011;64085;54.974;73.410;2023-04-06T17:02:32;40.03;;;19.17;;
75504;SDS011;64085;54.974;73.410;2023-04-06T17:05:00;46.70;;;18.45;;
75504;SDS011;64085;54.974;73.410;2023-04-06T17:07:27;28.75;;;14.30;;
75504;SDS011;64085;54.974;73.410;2023-04-06T17:10:00;29.73;;;13.70;;
75504;SDS011;64085;54.974;73.410;2023-04-06T17:12:27;26.15;;;12.45;;
75504;SDS011;64085;54.974;73.410;2023-04-06T17:14:53;26.60;;;12.48;;
75504;SDS011;64085;54.974;73.410;2023-04-06T17:17:19;37.72;;;12.43;;
75504;SDS011;64085;54.974;73.410;2023-04-06T17:19:45;24.77;;;11.27;;
75504;SDS011;64085;54.974;73.410;2023-04-06T17:22:10;26.08;;;10.93;;
75504;SDS011;64085;54.974;73.410;2023-04-06T17:24:36;20.40;;;10.40;;
75504;SDS011;64085;54.974;73.410;2023-04-06T17:27:02;24.95;;;10.43;;
75504;SDS011;64085;54.974;73.410;2023-04-06T17:29:48;17.90;;;9.02;;
75504;SDS011;64085;54.974;73.410;2023-04-06T17:32:13;20.17;;;10.02;;
75504;SDS011;64085;54.974;73.410;2023-04-06T17:34:58;19.35;;;9.55;;
75504;SDS011;64085;54.974;73.410;2023-04-06T17:37:24;25.40;;;9.70;;
75504;SDS011;64085;54.974;73.410;2023-04-06T17:39:49;21.98;;;9.77;;
75504;SDS011;64085;54.974;73.410;2023-04-06T17:42:15;18.13;;;9.23;;
75504;SDS011;64085;54.974;73.410;2023-04-06T17:44:59;16.77;;;7.13;;
75504;SDS011;64085;54.974;73.410;2023-04-06T17:47:43;7.75;;;3.88;;
75504;SDS011;64085;54.974;73.410;2023-04-06T17:50:09;10.40;;;4.50;;
75504;SDS011;64085;54.974;73.410;2023-04-06T17:52:35;11.30;;;5.72;;
75504;SDS011;64085;54.974;73.410;2023-04-06T17:55:01;10.20;;;2.88;;
75504;SDS011;64085;54.974;73.410;2023-04-06T17:57:28;13.00;;;3.38;;
75504;SDS011;64085;54.974;73.410;2023-04-06T17:59:53;11.77;;;3.25;;
75504;SDS011;64085;54.974;73.410;2023-04-06T18:02:20;9.98;;;3.25;;
75504;SDS011;64085;54.974;73.410;2023-04-06T18:04:46;5.85;;;2.85;;
75504;SDS011;64085;54.974;73.410;2023-04-06T18:07:15;11.13;;;3.38;;
75504;SDS011;64085;54.974;73.410;2023-04-06T18:09:40;10.65;;;2.58;;
75504;SDS011;64085;54.974;73.410;2023-04-06T18:14:51;6.82;;;2.50;;
75504;SDS011;64085;54.974;73.410;2023-04-06T18:17:16;4.72;;;2.42;;
75504;SDS011;64085;54.974;73.410;2023-04-06T18:19:42;2.15;;;1.40;;
75504;SDS011;64085;54.974;73.410;2023-04-06T18:22:08;5.55;;;2.50;;
75504;SDS011;64085;54.974;73.410;2023-04-06T18:24:35;4.85;;;2.25;;
75504;SDS011;64085;54.974;73.410;2023-04-06T18:30:04;3.50;;;1.92;;
75504;SDS011;64085;54.974;73.410;2023-04-06T18:32:30;9.23;;;2.40;;
75504;SDS011;64085;54.974;73.410;2023-04-06T18:34:56;3.47;;;1.75;;
75504;SDS011;64085;54.974;73.410;2023-04-06T18:37:59;4.93;;;2.42;;
75504;SDS011;64085;54.974;73.410;2023-04-06T18:45:44;7.03;;;2.20;;
75504;SDS011;64085;54.974;73.410;2023-04-06T18:48:10;6.22;;;1.88;;
75504;SDS011;64085;54.974;73.410;2023-04-06T18:50:37;2.90;;;1.50;;
75504;SDS011;64085;54.974;73.410;2023-04-06T18:53:03;3.20;;;1.40;;